Time;durP1;ratioP1;P1;durP2;ratioP2;P2;SDS_P1;SDS_P2;PMS_P1;PMS_P2;Temp;Humidity;BMP_temperature;BMP_pressure;BME280_temperature;BME280_humidity;BME280_pressure;Samples;Min_cycle;Max_cycle;Signal;HPM_P1;HPM_P2
2022/08/15 00:00:31;;;;;;;7.63;7.13;;;;;;;-148.82;100.00;60434.72;4981705;28;20205;-62
2022/08/15 00:03:02;;;;;;;7.60;7.10;;;;;;;-148.82;100.00;60434.72;4984058;28;20288;-65
2022/08/15 00:05:40;;;;;;;7.23;6.53;;;;;;;-148.82;100.00;60434.72;4982790;28;20552;-60
2022/08/15 00:08:10;;;;;;;7.30;6.80;;;;;;;-148.82;100.00;60434.72;4967782;28;20230;-65
2022/08/15 00:11:03;;;;;;;7.70;7.20;;;;;;;-148.82;100.00;60434.72;4981277;28;20239;-64
2022/08/15 00:13:50;;;;;;;7.50;6.87;;;;;;;-148.82;100.00;60434.72;4937137;28;20213;-65
2022/08/15 00:16:27;;;;;;;7.37;6.87;;;;;;;-148.82;100.00;60434.72;4984240;28;20232;-62
2022/08/15 00:19:00;;;;;;;7.63;7.13;;;;;;;-148.82;100.00;60434.72;4984924;28;20864;-65
2022/08/15 00:21:28;;;;;;;7.87;7.27;;;;;;;-148.82;100.00;60434.72;4984566;28;20209;-61
2022/08/15 00:23:57;;;;;;;7.33;6.83;;;;;;;-148.82;100.00;60434.72;4972289;28;20221;-60
2022/08/15 00:26:27;;;;;;;7.90;7.20;;;;;;;-148.82;100.00;60434.72;4988514;28;20619;-62
2022/08/15 00:29:17;;;;;;;8.27;7.60;;;;;;;-148.82;100.00;60434.72;4937757;28;20232;-64
2022/08/15 00:32:06;;;;;;;8.00;7.40;;;;;;;-148.82;100.00;60434.72;4990553;28;20217;-65
2022/08/15 00:34:54;;;;;;;7.70;7.07;;;;;;;-148.82;100.00;60434.72;4915635;28;20217;-62
2022/08/15 00:37:24;;;;;;;7.90;7.20;;;;;;;-148.82;100.00;60434.72;4990200;28;20228;-59
2022/08/15 00:39:52;;;;;;;8.97;8.17;;;;;;;-148.82;100.00;60434.72;4933132;28;20201;-59
2022/08/15 00:42:27;;;;;;;7.93;7.33;;;;;;;-148.82;100.00;60434.72;4984146;28;20773;-63
2022/08/15 00:44:57;;;;;;;8.37;7.73;;;;;;;-148.82;100.00;60434.72;4986832;28;20434;-64
2022/08/15 00:47:34;;;;;;;8.13;7.53;;;;;;;-148.82;100.00;60434.72;4990700;28;20228;-61
2022/08/15 00:50:08;;;;;;;8.63;7.97;;;;;;;-148.82;100.00;60434.72;4952065;28;20272;-63
2022/08/15 00:52:56;;;;;;;8.77;8.10;;;;;;;-148.82;100.00;60434.72;4980428;28;20223;-61
2022/08/15 00:55:27;;;;;;;7.60;7.10;;;;;;;-148.82;100.00;60434.72;4961460;28;20295;-62
2022/08/15 00:57:59;;;;;;;8.33;7.73;;;;;;;-148.82;100.00;60434.72;4985569;28;20221;-60
2022/08/15 01:00:34;;;;;;;8.03;7.53;;;;;;;-148.82;100.00;60434.72;4989178;28;20201;-65
2022/08/15 01:03:14;;;;;;;8.83;8.23;;;;;;;-148.82;100.00;60434.72;4935241;28;20758;-64
2022/08/15 01:05:45;;;;;;;8.27;7.67;;;;;;;-148.82;100.00;60434.72;4981942;28;20609;-60
2022/08/15 01:08:17;;;;;;;8.47;7.87;;;;;;;-148.82;100.00;60434.72;4989062;28;20407;-64
2022/08/15 01:10:47;;;;;;;9.13;8.47;;;;;;;-148.82;100.00;60434.72;4976807;28;20493;-62
2022/08/15 01:13:28;;;;;;;9.60;8.80;;;;;;;-148.82;100.00;60434.72;4987054;28;20204;-65
2022/08/15 01:16:16;;;;;;;8.37;7.77;;;;;;;-148.82;100.00;60434.72;4989443;28;20300;-65
2022/08/15 01:18:48;;;;;;;7.87;7.20;;;;;;;-148.82;100.00;60434.72;4966203;28;20399;-62
2022/08/15 01:21:24;;;;;;;9.60;8.90;;;;;;;-148.82;100.00;60434.72;4986067;28;20215;-65
2022/08/15 01:24:01;;;;;;;9.70;8.80;;;;;;;-148.82;100.00;60434.72;4985186;28;20527;-64
2022/08/15 01:26:32;;;;;;;8.50;7.90;;;;;;;-148.82;100.00;60434.72;4965785;28;20237;-64
2022/08/15 01:29:09;;;;;;;8.93;8.13;;;;;;;-148.82;100.00;60434.72;4987140;28;20224;-62
2022/08/15 01:31:38;;;;;;;8.63;7.93;;;;;;;-148.82;100.00;60434.72;4983406;28;20316;-62
2022/08/15 01:34:16;;;;;;;8.43;7.83;;;;;;;-148.82;100.00;60434.72;4931649;28;21049;-65
2022/08/15 01:36:47;;;;;;;8.20;7.47;;;;;;;-148.82;100.00;60434.72;4981790;28;20232;-61
2022/08/15 01:39:22;;;;;;;8.93;8.33;;;;;;;-148.82;100.00;60434.72;4988675;28;20717;-64
2022/08/15 01:41:55;;;;;;;8.87;7.97;;;;;;;-148.82;100.00;60434.72;4961959;28;20761;-62
2022/08/15 01:44:28;;;;;;;9.10;8.50;;;;;;;-148.82;100.00;60434.72;4986950;28;20682;-63
2022/08/15 01:47:14;;;;;;;8.27;7.57;;;;;;;-148.82;100.00;60434.72;4983735;28;20447;-65
2022/08/15 01:49:51;;;;;;;8.47;7.93;;;;;;;-148.82;100.00;60434.72;4963522;28;20205;-59
2022/08/15 01:52:32;;;;;;;9.23;8.43;;;;;;;-148.82;100.00;60434.72;4983857;28;20292;-64
2022/08/15 01:55:26;;;;;;;8.50;7.90;;;;;;;-148.82;100.00;60434.72;4986664;28;20440;-65
2022/08/15 01:58:04;;;;;;;9.17;8.50;;;;;;;-148.82;100.00;60434.72;4963830;28;20683;-61
2022/08/15 02:00:35;;;;;;;8.30;7.70;;;;;;;-148.82;100.00;60434.72;4986370;28;20213;-64
2022/08/15 02:03:11;;;;;;;9.00;8.20;;;;;;;-148.82;100.00;60434.72;4987859;28;20342;-62
2022/08/15 02:05:49;;;;;;;8.30;7.60;;;;;;;-148.82;100.00;60434.72;4955558;28;20213;-62
2022/08/15 02:08:24;;;;;;;8.87;8.27;;;;;;;-148.82;100.00;60434.72;4982096;28;20220;-65
2022/08/15 02:11:06;;;;;;;8.77;8.17;;;;;;;-148.82;100.00;60434.72;4983113;28;20192;-66
2022/08/15 02:13:55;;;;;;;8.00;7.40;;;;;;;-148.82;100.00;60434.72;4963304;28;20488;-60
2022/08/15 02:16:25;;;;;;;9.70;8.90;;;;;;;-148.82;100.00;60434.72;4987894;28;20236;-65
2022/08/15 02:18:54;;;;;;;8.80;8.10;;;;;;;-148.82;100.00;60434.72;4984778;28;20249;-61
2022/08/15 02:21:26;;;;;;;8.77;8.17;;;;;;;-148.82;100.00;60434.72;4936787;28;20217;-65
2022/08/15 02:24:07;;;;;;;8.57;7.97;;;;;;;-148.82;100.00;60434.72;4983202;28;20220;-65
2022/08/15 02:26:49;;;;;;;7.87;7.33;;;;;;;-148.82;100.00;60434.72;4971542;28;20233;-61
2022/08/15 02:29:21;;;;;;;8.23;7.63;;;;;;;-148.82;100.00;60434.72;4970033;28;20251;-61
2022/08/15 02:31:52;;;;;;;8.47;7.77;;;;;;;-148.82;100.00;60434.72;4971400;28;20639;-64
2022/08/15 02:34:24;;;;;;;8.70;8.00;;;;;;;-148.82;100.00;60434.72;4985455;28;20205;-61
2022/08/15 02:37:18;;;;;;;8.83;8.10;;;;;;;-148.82;100.00;60434.72;4938105;28;20381;-64
2022/08/15 02:39:52;;;;;;;8.70;8.00;;;;;;;-148.82;100.00;60434.72;4939317;28;20750;-62
2022/08/15 02:42:41;;;;;;;9.70;8.67;;;;;;;-148.82;100.00;60434.72;4976484;28;20959;-62
2022/08/15 02:45:16;;;;;;;10.00;9.17;;;;;;;-148.82;100.00;60434.72;4986441;28;20204;-64
2022/08/15 02:47:45;;;;;;;9.70;8.77;;;;;;;-148.82;100.00;60434.72;4974841;28;20872;-61
2022/08/15 02:50:16;;;;;;;10.00;9.20;;;;;;;-148.82;100.00;60434.72;4973859;28;20451;-64
2022/08/15 02:52:49;;;;;;;9.97;9.20;;;;;;;-148.82;100.00;60434.72;4979886;28;20730;-61
2022/08/15 02:55:20;;;;;;;10.00;9.20;;;;;;;-148.82;100.00;60434.72;4939480;28;20219;-61
2022/08/15 02:57:51;;;;;;;9.23;8.53;;;;;;;-148.82;100.00;60434.72;4979272;28;20311;-61
2022/08/15 03:00:31;;;;;;;9.70;8.97;;;;;;;-148.82;100.00;60434.72;4984523;28;20567;-64
2022/08/15 03:03:06;;;;;;;9.77;9.00;;;;;;;-148.82;100.00;60434.72;4980542;28;20237;-64
2022/08/15 03:05:36;;;;;;;9.63;8.83;;;;;;;-148.82;100.00;60434.72;4962235;28;20210;-62
2022/08/15 03:08:05;;;;;;;9.10;8.40;;;;;;;-148.82;100.00;60434.72;4982478;28;20532;-64
2022/08/15 03:10:34;;;;;;;9.90;9.00;;;;;;;-148.82;100.00;60434.72;4939232;28;20852;-65
2022/08/15 03:13:10;;;;;;;9.00;8.30;;;;;;;-148.82;100.00;60434.72;4979533;28;20450;-61
2022/08/15 03:15:43;;;;;;;9.10;8.30;;;;;;;-148.82;100.00;60434.72;4987222;28;20271;-59
2022/08/15 03:18:26;;;;;;;10.20;9.37;;;;;;;-148.82;100.00;60434.72;4985522;28;20228;-64
2022/08/15 03:21:00;;;;;;;8.57;7.97;;;;;;;-148.82;100.00;60434.72;4959294;28;20236;-63
2022/08/15 03:23:32;;;;;;;9.30;8.57;;;;;;;-148.82;100.00;60434.72;4983865;28;20230;-62
2022/08/15 03:26:11;;;;;;;8.90;8.30;;;;;;;-148.82;100.00;60434.72;4936586;28;20220;-62
2022/08/15 03:29:00;;;;;;;9.50;8.80;;;;;;;-148.82;100.00;60434.72;4981581;28;20211;-64
2022/08/15 03:31:34;;;;;;;9.23;8.60;;;;;;;-148.82;100.00;60434.72;4985824;28;20271;-64
2022/08/15 03:34:13;;;;;;;9.30;8.60;;;;;;;-148.82;100.00;60434.72;4982380;28;20221;-64
2022/08/15 03:36:45;;;;;;;9.27;8.53;;;;;;;-148.82;100.00;60434.72;4965993;28;20232;-60
2022/08/15 03:39:20;;;;;;;9.33;8.57;;;;;;;-148.82;100.00;60434.72;4985702;28;20960;-60
2022/08/15 03:41:50;;;;;;;9.00;8.20;;;;;;;-148.82;100.00;60434.72;4931138;28;20240;-61
2022/08/15 03:44:24;;;;;;;9.80;8.90;;;;;;;-148.82;100.00;60434.72;4988723;28;20310;-64
2022/08/15 03:46:56;;;;;;;8.97;8.37;;;;;;;-148.82;100.00;60434.72;4984434;28;20422;-64
2022/08/15 03:49:25;;;;;;;9.40;8.77;;;;;;;-148.82;100.00;60434.72;4980865;28;20251;-64
2022/08/15 03:52:13;;;;;;;8.60;8.00;;;;;;;-148.82;100.00;60434.72;4960058;28;20213;-59
2022/08/15 03:55:01;;;;;;;9.47;8.67;;;;;;;-148.82;100.00;60434.72;4982423;28;20432;-64
2022/08/15 03:57:30;;;;;;;9.57;8.90;;;;;;;-148.82;100.00;60434.72;4930829;28;20230;-60
2022/08/15 04:00:22;;;;;;;10.13;9.30;;;;;;;-148.82;100.00;60434.72;4984461;28;20538;-63
2022/08/15 04:03:04;;;;;;;9.90;9.10;;;;;;;-148.82;100.00;60434.72;4979450;28;20205;-60
2022/08/15 04:05:32;;;;;;;9.73;8.97;;;;;;;-148.82;100.00;60434.72;4986277;28;20233;-64
2022/08/15 04:08:09;;;;;;;9.60;8.90;;;;;;;-148.82;100.00;60434.72;4959290;28;20225;-64
2022/08/15 04:10:58;;;;;;;9.53;8.83;;;;;;;-148.82;100.00;60434.72;4928871;28;20880;-65
2022/08/15 04:13:27;;;;;;;10.07;9.27;;;;;;;-148.82;100.00;60434.72;4980170;28;20240;-64
2022/08/15 04:16:00;;;;;;;9.77;8.93;;;;;;;-148.82;100.00;60434.72;4978457;28;20413;-64
2022/08/15 04:18:49;;;;;;;9.80;8.90;;;;;;;-148.82;100.00;60434.72;4980626;28;20232;-61
2022/08/15 04:21:26;;;;;;;9.43;8.77;;;;;;;-148.82;100.00;60434.72;4982308;28;20229;-65
2022/08/15 04:23:54;;;;;;;9.97;9.17;;;;;;;-148.82;100.00;60434.72;4957735;28;20236;-59
2022/08/15 04:26:23;;;;;;;9.77;9.07;;;;;;;-148.82;100.00;60434.72;4980872;28;20291;-64
2022/08/15 04:28:55;;;;;;;10.07;9.13;;;;;;;-148.82;100.00;60434.72;4930725;28;20571;-63
2022/08/15 04:31:25;;;;;;;9.87;9.17;;;;;;;-148.82;100.00;60434.72;4984353;28;20689;-64
2022/08/15 04:34:03;;;;;;;10.27;9.57;;;;;;;-148.82;100.00;60434.72;4978765;28;20350;-64
2022/08/15 04:36:51;;;;;;;9.80;9.10;;;;;;;-148.82;100.00;60434.72;4977480;28;20235;-61
2022/08/15 04:39:24;;;;;;;9.77;9.00;;;;;;;-148.82;100.00;60434.72;4963680;28;20559;-65
2022/08/15 04:42:01;;;;;;;10.83;9.83;;;;;;;-148.82;100.00;60434.72;4930609;28;20315;-64
2022/08/15 04:44:31;;;;;;;9.97;9.10;;;;;;;-148.82;100.00;60434.72;4985667;28;20212;-65
2022/08/15 04:47:00;;;;;;;9.93;8.93;;;;;;;-148.82;100.00;60434.72;4977520;28;20738;-61
2022/08/15 04:49:30;;;;;;;9.60;8.87;;;;;;;-148.82;100.00;60434.72;4927665;28;20208;-65
2022/08/15 04:52:07;;;;;;;10.37;9.40;;;;;;;-148.82;100.00;60434.72;4983690;28;20279;-64
2022/08/15 04:54:36;;;;;;;10.50;9.50;;;;;;;-148.82;100.00;60434.72;4970116;28;20205;-64
2022/08/15 04:57:04;;;;;;;10.13;9.33;;;;;;;-148.82;100.00;60434.72;4985752;28;20234;-61
2022/08/15 04:59:32;;;;;;;10.77;9.97;;;;;;;-148.82;100.00;60434.72;4981340;28;20485;-65
2022/08/15 05:02:25;;;;;;;10.47;9.73;;;;;;;-148.82;100.00;60434.72;4934700;28;21901;-63
2022/08/15 05:05:15;;;;;;;10.30;9.30;;;;;;;-148.82;100.00;60434.72;4977501;28;20216;-61
2022/08/15 05:07:44;;;;;;;18.87;17.17;;;;;;;-148.82;100.00;60434.72;4986723;28;20312;-64
2022/08/15 05:10:26;;;;;;;13.27;12.17;;;;;;;-148.82;100.00;60434.72;4968423;28;20213;-62
2022/08/15 05:13:09;;;;;;;11.73;10.67;;;;;;;-148.82;100.00;60434.72;4989526;28;20234;-65
2022/08/15 05:15:38;;;;;;;10.67;9.87;;;;;;;-148.82;100.00;60434.72;4986368;28;21154;-65
2022/08/15 05:18:21;;;;;;;11.00;10.03;;;;;;;-148.82;100.00;60434.72;4935406;28;25938;-60
2022/08/15 05:20:51;;;;;;;10.30;9.37;;;;;;;-148.82;100.00;60434.72;4983925;28;20225;-65
2022/08/15 05:23:22;;;;;;;10.77;9.83;;;;;;;-148.82;100.00;60434.72;4981269;28;20689;-64
2022/08/15 05:26:10;;;;;;;10.87;10.07;;;;;;;-148.82;100.00;60434.72;4968498;28;20597;-62
2022/08/15 05:28:59;;;;;;;10.93;10.03;;;;;;;-148.82;100.00;60434.72;4984283;28;20491;-65
2022/08/15 05:31:27;;;;;;;11.10;10.20;;;;;;;-148.82;100.00;60434.72;4984865;28;20343;-64
2022/08/15 05:34:01;;;;;;;11.80;10.70;;;;;;;-148.82;100.00;60434.72;4991446;28;20202;-62
2022/08/15 05:36:34;;;;;;;11.37;10.47;;;;;;;-148.82;100.00;60434.72;4950943;28;20449;-65
2022/08/15 05:39:14;;;;;;;11.73;10.73;;;;;;;-148.82;100.00;60434.72;4987478;28;20268;-61
2022/08/15 05:41:48;;;;;;;12.13;11.27;;;;;;;-148.82;100.00;60434.72;4971453;28;20245;-64
2022/08/15 05:44:28;;;;;;;11.93;10.93;;;;;;;-148.82;100.00;60434.72;4983579;28;20400;-62
2022/08/15 05:47:20;;;;;;;11.93;11.03;;;;;;;-148.82;100.00;60434.72;4984735;28;20225;-61
2022/08/15 05:49:53;;;;;;;11.73;10.73;;;;;;;-148.82;100.00;60434.72;4970701;28;20308;-64
2022/08/15 05:52:31;;;;;;;11.73;10.83;;;;;;;-148.82;100.00;60434.72;4938040;28;20360;-65
2022/08/15 05:55:18;;;;;;;10.77;9.87;;;;;;;-148.82;100.00;60434.72;4984115;28;20204;-62
2022/08/15 05:57:56;;;;;;;10.60;9.80;;;;;;;-148.82;100.00;60434.72;4974402;28;20307;-64
2022/08/15 06:00:26;;;;;;;10.83;10.03;;;;;;;-148.82;100.00;60434.72;4985304;28;20344;-65
2022/08/15 06:03:02;;;;;;;11.33;10.43;;;;;;;-148.82;100.00;60434.72;4987771;28;20287;-65
2022/08/15 06:05:34;;;;;;;11.20;10.30;;;;;;;-148.82;100.00;60434.72;4987569;28;20266;-64
2022/08/15 06:08:10;;;;;;;11.03;10.23;;;;;;;-148.82;100.00;60434.72;4940398;28;20245;-62
2022/08/15 06:11:03;;;;;;;10.80;9.93;;;;;;;-148.82;100.00;60434.72;4988877;28;20659;-65
2022/08/15 06:13:34;;;;;;;10.77;9.87;;;;;;;-148.82;100.00;60434.72;4966915;28;20217;-65
2022/08/15 06:16:08;;;;;;;11.70;10.70;;;;;;;-148.82;100.00;60434.72;4991341;28;20705;-62
2022/08/15 06:18:57;;;;;;;11.37;10.37;;;;;;;-148.82;100.00;60434.72;4990116;28;20219;-62
2022/08/15 06:21:31;;;;;;;11.20;10.30;;;;;;;-148.82;100.00;60434.72;4982989;28;20590;-62
2022/08/15 06:24:11;;;;;;;10.50;9.77;;;;;;;-148.82;100.00;60434.72;4939946;28;20223;-62
2022/08/15 06:26:58;;;;;;;10.90;10.03;;;;;;;-148.82;100.00;60434.72;4985540;28;20760;-64
2022/08/15 06:29:56;;;;;;;12.90;11.60;;;;;;;-148.82;100.00;60434.72;4967808;28;20209;-64
2022/08/15 06:32:32;;;;;;;11.10;10.13;;;;;;;-148.82;100.00;60434.72;4981653;28;20228;-65
2022/08/15 06:35:09;;;;;;;11.67;10.77;;;;;;;-148.82;100.00;60434.72;4984593;28;20660;-65
2022/08/15 06:37:43;;;;;;;11.30;10.40;;;;;;;-148.82;100.00;60434.72;4943012;28;20670;-65
2022/08/15 06:40:33;;;;;;;13.57;12.53;;;;;;;-148.82;100.00;60434.72;4980269;28;20828;-65
2022/08/15 06:43:01;;;;;;;14.10;13.00;;;;;;;-148.82;100.00;60434.72;4971852;28;20301;-62
2022/08/15 06:45:35;;;;;;;10.03;9.03;;;;;;;-148.82;100.00;60434.72;4985374;28;20431;-64
2022/08/15 06:48:07;;;;;;;11.80;9.57;;;;;;;-148.82;100.00;60434.72;4988795;28;20680;-62
2022/08/15 06:50:59;;;;;;;9.80;9.00;;;;;;;-148.82;100.00;60434.72;4986614;28;20736;-65
2022/08/15 06:53:32;;;;;;;10.30;9.50;;;;;;;-148.82;100.00;60434.72;4936747;28;20287;-65
2022/08/15 06:56:11;;;;;;;9.93;9.13;;;;;;;-148.82;100.00;60434.72;4932184;28;20562;-65
2022/08/15 06:58:48;;;;;;;9.87;9.17;;;;;;;-148.82;100.00;60434.72;4981972;28;20410;-63
2022/08/15 07:01:32;;;;;;;9.60;8.90;;;;;;;-148.82;100.00;60434.72;4967522;28;20259;-63
2022/08/15 07:04:22;;;;;;;9.73;8.93;;;;;;;-148.82;100.00;60434.72;4988602;28;20205;-63
2022/08/15 07:07:08;;;;;;;9.00;8.30;;;;;;;-148.82;100.00;60434.72;4969325;28;20240;-60
2022/08/15 07:09:46;;;;;;;8.50;7.70;;;;;;;-148.82;100.00;60434.72;4947138;28;20208;-61
2022/08/15 07:12:26;;;;;;;7.90;7.30;;;;;;;-148.82;100.00;60434.72;4981154;28;20756;-64
2022/08/15 07:15:07;;;;;;;9.00;8.20;;;;;;;-148.82;100.00;60434.72;4980285;28;20308;-64
2022/08/15 07:17:38;;;;;;;8.83;8.13;;;;;;;-148.82;100.00;60434.72;4983264;28;20232;-61
2022/08/15 07:20:11;;;;;;;9.83;8.87;;;;;;;-148.82;100.00;60434.72;4982727;28;20219;-64
2022/08/15 07:23:00;;;;;;;9.10;8.50;;;;;;;-148.82;100.00;60434.72;4973411;28;20678;-65
2022/08/15 07:25:32;;;;;;;9.00;8.40;;;;;;;-148.82;100.00;60434.72;4966459;28;20212;-62
2022/08/15 07:28:04;;;;;;;9.47;8.57;;;;;;;-148.82;100.00;60434.72;4965941;28;20381;-65
2022/08/15 07:30:44;;;;;;;8.97;8.30;;;;;;;-148.82;100.00;60434.72;4985643;28;20244;-63
2022/08/15 07:33:29;;;;;;;9.13;8.30;;;;;;;-148.82;100.00;60434.72;4984706;28;20210;-65
2022/08/15 07:36:06;;;;;;;8.17;7.60;;;;;;;-148.82;100.00;60434.72;4968007;28;20274;-62
2022/08/15 07:38:34;;;;;;;7.60;7.00;;;;;;;-148.82;100.00;60434.72;4981300;28;20287;-61
2022/08/15 07:41:17;;;;;;;8.60;7.70;;;;;;;-148.82;100.00;60434.72;4988805;28;20303;-65
2022/08/15 07:43:49;;;;;;;7.77;7.27;;;;;;;-148.82;100.00;60434.72;4934922;28;20303;-64
2022/08/15 07:46:20;;;;;;;7.57;7.00;;;;;;;-148.82;100.00;60434.72;4986054;28;20220;-61
2022/08/15 07:48:58;;;;;;;8.87;8.17;;;;;;;-148.82;100.00;60434.72;4979097;28;20215;-65
2022/08/15 07:51:29;;;;;;;8.30;7.80;;;;;;;-148.82;100.00;60434.72;4984317;28;20205;-62
2022/08/15 07:54:03;;;;;;;9.10;8.50;;;;;;;-148.82;100.00;60434.72;4976695;28;20213;-65
2022/08/15 07:56:34;;;;;;;8.40;7.80;;;;;;;-148.82;100.00;60434.72;4987188;28;20629;-61
2022/08/15 07:59:20;;;;;;;8.87;8.23;;;;;;;-148.82;100.00;60434.72;4938124;28;20225;-65
2022/08/15 08:01:54;;;;;;;8.37;7.60;;;;;;;-148.82;100.00;60434.72;4981840;28;20725;-64
2022/08/15 08:04:26;;;;;;;8.57;7.83;;;;;;;-148.82;100.00;60434.72;4983718;28;20299;-61
2022/08/15 08:06:56;;;;;;;7.77;7.17;;;;;;;-148.82;100.00;60434.72;4967573;28;20393;-65
2022/08/15 08:09:32;;;;;;;9.00;8.20;;;;;;;-148.82;100.00;60434.72;4983001;28;21219;-59
2022/08/15 08:12:10;;;;;;;7.77;7.07;;;;;;;-148.82;100.00;60434.72;4983318;28;20422;-66
2022/08/15 08:14:52;;;;;;;7.70;7.20;;;;;;;-148.82;100.00;60434.72;4934981;28;20223;-61
2022/08/15 08:17:26;;;;;;;7.80;7.27;;;;;;;-148.82;100.00;60434.72;4984307;28;20785;-64
2022/08/15 08:20:23;;;;;;;7.10;6.70;;;;;;;-148.82;100.00;60434.72;4985264;28;20236;-61
2022/08/15 08:23:01;;;;;;;7.83;6.60;;;;;;;-148.82;100.00;60434.72;4963900;28;20427;-63
2022/08/15 08:25:36;;;;;;;7.40;6.73;;;;;;;-148.82;100.00;60434.72;4981250;28;20213;-60
2022/08/15 08:28:28;;;;;;;6.90;6.30;;;;;;;-148.82;100.00;60434.72;4983130;28;20239;-61
2022/08/15 08:31:08;;;;;;;5.27;4.87;;;;;;;-148.82;100.00;60434.72;4971866;28;20237;-65
2022/08/15 08:33:50;;;;;;;5.63;5.20;;;;;;;-148.82;100.00;60434.72;4982376;28;20216;-62
2022/08/15 08:36:28;;;;;;;4.30;4.10;;;;;;;-148.82;100.00;60434.72;4983948;28;20209;-65
2022/08/15 08:39:19;;;;;;;4.30;3.90;;;;;;;-148.82;100.00;60434.72;4984317;28;20216;-59
2022/08/15 08:41:54;;;;;;;5.00;4.50;;;;;;;-148.82;100.00;60434.72;4984481;28;20421;-65
2022/08/15 08:44:31;;;;;;;4.97;4.67;;;;;;;-148.82;100.00;60434.72;4939172;28;20726;-63
2022/08/15 08:47:11;;;;;;;4.63;4.27;;;;;;;-148.82;100.00;60434.72;4982918;28;20363;-65
2022/08/15 08:49:50;;;;;;;6.63;4.23;;;;;;;-148.82;100.00;60434.72;4984647;28;20292;-64
2022/08/15 08:52:45;;;;;;;4.67;3.90;;;;;;;-148.82;100.00;60434.72;4973465;28;20206;-62
2022/08/15 08:55:25;;;;;;;5.13;4.23;;;;;;;-148.82;100.00;60434.72;4991049;28;20219;-64
2022/08/15 08:58:16;;;;;;;4.53;4.23;;;;;;;-148.82;100.00;60434.72;4987591;28;20283;-61
2022/08/15 09:01:06;;;;;;;5.10;4.17;;;;;;;-148.82;100.00;60434.72;4940859;28;20218;-61
2022/08/15 09:03:40;;;;;;;4.50;4.20;;;;;;;-148.82;100.00;60434.72;4936734;28;20421;-64
2022/08/15 09:06:14;;;;;;;4.37;3.97;;;;;;;-148.82;100.00;60434.72;4982913;28;20458;-64
2022/08/15 09:08:58;;;;;;;4.57;3.97;;;;;;;-148.82;100.00;60434.72;4985781;28;20203;-62
2022/08/15 09:11:29;;;;;;;4.20;3.90;;;;;;;-148.82;100.00;60434.72;4987411;28;20691;-64
2022/08/15 09:14:02;;;;;;;4.23;3.93;;;;;;;-148.82;100.00;60434.72;4971081;28;20209;-60
2022/08/15 09:16:34;;;;;;;8.50;4.50;;;;;;;-148.82;100.00;60434.72;4988505;28;20237;-62
2022/08/15 09:19:13;;;;;;;4.70;4.30;;;;;;;-148.82;100.00;60434.72;4919876;28;20338;-62
2022/08/15 09:21:43;;;;;;;4.80;4.50;;;;;;;-148.82;100.00;60434.72;4989677;28;20665;-64
2022/08/15 09:24:13;;;;;;;4.43;4.03;;;;;;;-148.82;100.00;60434.72;4984991;28;20430;-64
2022/08/15 09:27:05;;;;;;;3.90;3.70;;;;;;;-148.82;100.00;60434.72;4983786;28;20222;-59
2022/08/15 09:29:38;;;;;;;4.03;3.73;;;;;;;-148.82;100.00;60434.72;4993593;28;20201;-64
2022/08/15 09:32:41;;;;;;;4.33;4.03;;;;;;;-148.82;100.00;60434.72;4985183;28;20193;-64
2022/08/15 09:35:26;;;;;;;4.27;3.97;;;;;;;-148.82;100.00;60434.72;4917262;28;20861;-64
2022/08/15 09:38:11;;;;;;;4.40;4.00;;;;;;;-148.82;100.00;60434.72;4987947;28;20228;-62
2022/08/15 09:41:20;;;;;;;8.37;6.73;;;;;;;-148.82;100.00;60434.72;4990051;28;20689;-62
2022/08/15 09:44:03;;;;;;;4.80;4.40;;;;;;;-148.82;100.00;60434.72;4986468;28;20209;-59
2022/08/15 09:47:09;;;;;;;4.80;4.50;;;;;;;-148.82;100.00;60434.72;4988846;28;20239;-61
2022/08/15 09:49:53;;;;;;;4.97;4.57;;;;;;;-148.82;100.00;60434.72;4942703;28;20499;-63
2022/08/15 09:52:36;;;;;;;5.27;4.87;;;;;;;-148.82;100.00;60434.72;4984758;28;21315;-63
2022/08/15 09:55:21;;;;;;;4.87;4.47;;;;;;;-148.82;100.00;60434.72;4983018;28;20597;-64
2022/08/15 09:57:52;;;;;;;4.90;4.50;;;;;;;-148.82;100.00;60434.72;4988843;28;20636;-62
2022/08/15 10:00:30;;;;;;;4.73;4.33;;;;;;;-148.82;100.00;60434.72;4984908;28;20200;-63
2022/08/15 10:03:07;;;;;;;4.63;4.20;;;;;;;-148.82;100.00;60434.72;4986324;28;20244;-64
2022/08/15 10:05:45;;;;;;;5.40;4.90;;;;;;;-148.82;100.00;60434.72;4939505;28;20259;-61
2022/08/15 10:08:23;;;;;;;5.43;5.00;;;;;;;-148.82;100.00;60434.72;4982457;28;20537;-63
2022/08/15 10:11:10;;;;;;;4.93;4.53;;;;;;;-148.82;100.00;60434.72;4984080;28;20284;-59
2022/08/15 10:13:48;;;;;;;7.60;4.63;;;;;;;-148.82;100.00;60434.72;4987163;28;20211;-63
2022/08/15 10:16:46;;;;;;;5.30;4.90;;;;;;;-148.82;100.00;60434.72;4984527;28;20238;-63
2022/08/15 10:19:37;;;;;;;5.83;5.33;;;;;;;-148.82;100.00;60434.72;4984840;28;20227;-63
2022/08/15 10:23:07;;;;;;;5.37;4.90;;;;;;;-148.82;100.00;60434.72;4968776;28;20224;-62
2022/08/15 10:25:38;;;;;;;5.57;5.17;;;;;;;-148.82;100.00;60434.72;4954903;28;20205;-63
2022/08/15 10:28:09;;;;;;;4.97;4.67;;;;;;;-148.82;100.00;60434.72;4956899;28;20226;-60
2022/08/15 10:31:19;;;;;;;8.53;4.60;;;;;;;-148.82;100.00;60434.72;4954862;28;20248;-61
2022/08/15 10:34:17;;;;;;;5.43;4.60;;;;;;;-148.82;100.00;60434.72;4945811;28;20744;-60
2022/08/15 10:37:19;;;;;;;4.63;4.33;;;;;;;-148.82;100.00;60434.72;4906185;28;20257;-62
2022/08/15 10:40:17;;;;;;;5.00;4.70;;;;;;;-148.82;100.00;60434.72;4958233;28;20295;-59
2022/08/15 10:43:08;;;;;;;4.97;4.57;;;;;;;-148.82;100.00;60434.72;4954675;28;20256;-60
2022/08/15 10:45:41;;;;;;;4.83;4.43;;;;;;;-148.82;100.00;60434.72;4959386;28;20205;-62
2022/08/15 10:48:22;;;;;;;5.10;4.77;;;;;;;-148.82;100.00;60434.72;4950875;28;20336;-62
2022/08/15 10:51:18;;;;;;;5.07;4.77;;;;;;;-148.82;100.00;60434.72;4906222;28;22225;-59
2022/08/15 10:53:54;;;;;;;5.87;4.30;;;;;;;-148.82;100.00;60434.72;4952071;28;20870;-63
2022/08/15 10:56:27;;;;;;;6.07;4.77;;;;;;;-148.82;100.00;60434.72;4962040;28;20227;-63
2022/08/15 10:59:19;;;;;;;4.57;4.27;;;;;;;-148.82;100.00;60434.72;4983097;28;20207;-62
2022/08/15 11:01:50;;;;;;;5.27;4.80;;;;;;;-148.82;100.00;60434.72;4990003;28;20267;-60
2022/08/15 11:04:25;;;;;;;4.73;4.50;;;;;;;-148.82;100.00;60434.72;4982900;28;20463;-62
2022/08/15 11:07:19;;;;;;;4.77;4.27;;;;;;;-148.82;100.00;60434.72;4931699;28;20440;-63
2022/08/15 11:09:53;;;;;;;4.67;3.70;;;;;;;-148.82;100.00;60434.72;4932245;28;20651;-63
2022/08/15 11:12:23;;;;;;;4.63;4.10;;;;;;;-148.82;100.00;60434.72;4984410;28;20197;-60
2022/08/15 11:14:59;;;;;;;4.80;4.00;;;;;;;-148.82;100.00;60434.72;4986305;28;20248;-63
2022/08/15 11:17:31;;;;;;;4.17;3.77;;;;;;;-148.82;100.00;60434.72;4962442;28;20587;-60
2022/08/15 11:20:19;;;;;;;4.73;4.00;;;;;;;-148.82;100.00;60434.72;4985698;28;20216;-58
2022/08/15 11:22:53;;;;;;;3.73;3.43;;;;;;;-148.82;100.00;60434.72;4967805;28;20583;-65
2022/08/15 11:25:24;;;;;;;4.67;3.77;;;;;;;-148.82;100.00;60434.72;4937639;28;20315;-62
2022/08/15 11:28:03;;;;;;;3.40;3.20;;;;;;;-148.82;100.00;60434.72;4984638;28;20286;-65
2022/08/15 11:31:00;;;;;;;3.50;3.30;;;;;;;-148.82;100.00;60434.72;4987469;28;20228;-64
2022/08/15 11:33:41;;;;;;;3.93;3.27;;;;;;;-148.82;100.00;60434.72;4986323;28;20278;-61
2022/08/15 11:36:11;;;;;;;3.30;3.10;;;;;;;-148.82;100.00;60434.72;4988474;28;20240;-62
2022/08/15 11:38:47;;;;;;;3.40;3.20;;;;;;;-148.82;100.00;60434.72;4973398;28;20208;-65
2022/08/15 11:41:39;;;;;;;3.27;3.03;;;;;;;-148.82;100.00;60434.72;4937555;28;20391;-63
2022/08/15 11:44:18;;;;;;;3.83;3.50;;;;;;;-148.82;100.00;60434.72;4982771;28;20580;-61
2022/08/15 11:46:52;;;;;;;3.30;3.10;;;;;;;-148.82;100.00;60434.72;4985608;28;20308;-64
2022/08/15 11:49:29;;;;;;;3.10;2.90;;;;;;;-148.82;100.00;60434.72;4989356;28;20698;-60
2022/08/15 11:52:03;;;;;;;3.70;3.50;;;;;;;-148.82;100.00;60434.72;4985328;28;20283;-65
2022/08/15 11:55:18;;;;;;;3.37;2.83;;;;;;;-148.82;100.00;60434.72;4978402;28;20216;-62
2022/08/15 11:57:59;;;;;;;2.83;2.63;;;;;;;-148.82;100.00;60434.72;4936409;28;20244;-64